sensor_id;sensor_type;location;lat;lon;timestamp;temperature;humidity
39931;DHT22;26635;-35.248;149.138;2022-11-27T00:00:25;21.00;77.80
39931;DHT22;26635;-35.248;149.138;2022-11-27T00:02:56;21.20;76.90
39931;DHT22;26635;-35.248;149.138;2022-11-27T00:05:28;21.50;76.00
39931;DHT22;26635;-35.248;149.138;2022-11-27T00:07:59;21.70;75.30
39931;DHT22;26635;-35.248;149.138;2022-11-27T00:10:32;22.00;74.80
39931;DHT22;26635;-35.248;149.138;2022-11-27T00:13:02;22.00;74.80
39931;DHT22;26635;-35.248;149.138;2022-11-27T00:15:33;22.00;74.60
39931;DHT22;26635;-35.248;149.138;2022-11-27T00:18:03;22.00;74.00
39931;DHT22;26635;-35.248;149.138;2022-11-27T00:20:34;21.90;74.50
39931;DHT22;26635;-35.248;149.138;2022-11-27T00:23:04;21.80;74.90
39931;DHT22;26635;-35.248;149.138;2022-11-27T00:25:35;21.70;75.70
39931;DHT22;26635;-35.248;149.138;2022-11-27T00:28:05;21.60;75.00
39931;DHT22;26635;-35.248;149.138;2022-11-27T00:30:35;21.60;76.20
39931;DHT22;26635;-35.248;149.138;2022-11-27T00:33:06;21.80;76.90
39931;DHT22;26635;-35.248;149.138;2022-11-27T00:35:40;22.00;76.40
39931;DHT22;26635;-35.248;149.138;2022-11-27T00:38:11;22.20;76.00
39931;DHT22;26635;-35.248;149.138;2022-11-27T00:40:41;22.30;76.10
39931;DHT22;26635;-35.248;149.138;2022-11-27T00:43:11;22.50;76.20
39931;DHT22;26635;-35.248;149.138;2022-11-27T00:45:47;22.80;75.60
39931;DHT22;26635;-35.248;149.138;2022-11-27T00:48:17;23.00;76.20
39931;DHT22;26635;-35.248;149.138;2022-11-27T00:50:48;23.20;74.90
39931;DHT22;26635;-35.248;149.138;2022-11-27T00:53:19;23.20;72.30
39931;DHT22;26635;-35.248;149.138;2022-11-27T00:55:49;23.20;72.80
39931;DHT22;26635;-35.248;149.138;2022-11-27T00:58:20;23.20;71.70
39931;DHT22;26635;-35.248;149.138;2022-11-27T01:00:59;23.20;71.50
39931;DHT22;26635;-35.248;149.138;2022-11-27T01:03:30;23.20;71.80
39931;DHT22;26635;-35.248;149.138;2022-11-27T01:06:05;23.10;71.90
39931;DHT22;26635;-35.248;149.138;2022-11-27T01:08:36;23.00;73.10
39931;DHT22;26635;-35.248;149.138;2022-11-27T01:11:11;22.90;74.20
39931;DHT22;26635;-35.248;149.138;2022-11-27T01:13:42;23.00;73.20
39931;DHT22;26635;-35.248;149.138;2022-11-27T01:16:20;23.20;72.10
39931;DHT22;26635;-35.248;149.138;2022-11-27T01:18:52;23.20;72.20
39931;DHT22;26635;-35.248;149.138;2022-11-27T01:21:26;23.20;72.90
39931;DHT22;26635;-35.248;149.138;2022-11-27T01:23:58;23.40;72.40
39931;DHT22;26635;-35.248;149.138;2022-11-27T01:26:29;23.50;71.60
39931;DHT22;26635;-35.248;149.138;2022-11-27T01:29:00;23.70;71.90
39931;DHT22;26635;-35.248;149.138;2022-11-27T01:31:31;24.10;71.10
39931;DHT22;26635;-35.248;149.138;2022-11-27T01:34:05;24.30;70.20
39931;DHT22;26635;-35.248;149.138;2022-11-27T01:36:36;24.50;70.10
39931;DHT22;26635;-35.248;149.138;2022-11-27T01:39:07;24.60;69.70
39931;DHT22;26635;-35.248;149.138;2022-11-27T01:41:37;24.60;68.50
39931;DHT22;26635;-35.248;149.138;2022-11-27T01:46:57;24.50;68.90
39931;DHT22;26635;-35.248;149.138;2022-11-27T01:49:49;24.40;69.30
39931;DHT22;26635;-35.248;149.138;2022-11-27T01:52:28;24.20;68.80
39931;DHT22;26635;-35.248;149.138;2022-11-27T01:55:27;23.90;70.20
39931;DHT22;26635;-35.248;149.138;2022-11-27T01:58:11;23.60;72.30
39931;DHT22;26635;-35.248;149.138;2022-11-27T02:00:42;23.50;72.20
39931;DHT22;26635;-35.248;149.138;2022-11-27T02:03:13;23.80;72.40
39931;DHT22;26635;-35.248;149.138;2022-11-27T02:05:44;24.20;72.90
39931;DHT22;26635;-35.248;149.138;2022-11-27T02:08:16;24.50;71.90
39931;DHT22;26635;-35.248;149.138;2022-11-27T02:11:06;24.70;70.30
39931;DHT22;26635;-35.248;149.138;2022-11-27T02:13:53;24.90;69.20
39931;DHT22;26635;-35.248;149.138;2022-11-27T02:22:41;25.50;67.50
39931;DHT22;26635;-35.248;149.138;2022-11-27T02:25:35;25.50;65.00
39931;DHT22;26635;-35.248;149.138;2022-11-27T02:32:14;25.10;64.20
39931;DHT22;26635;-35.248;149.138;2022-11-27T02:37:35;24.30;64.60
39931;DHT22;26635;-35.248;149.138;2022-11-27T02:42:44;24.00;66.60
39931;DHT22;26635;-35.248;149.138;2022-11-27T02:45:22;24.00;67.70
39931;DHT22;26635;-35.248;149.138;2022-11-27T02:47:56;24.00;68.30
39931;DHT22;26635;-35.248;149.138;2022-11-27T02:50:29;24.10;66.90
39931;DHT22;26635;-35.248;149.138;2022-11-27T02:53:06;24.10;68.10
39931;DHT22;26635;-35.248;149.138;2022-11-27T02:55:39;24.10;66.40
39931;DHT22;26635;-35.248;149.138;2022-11-27T02:58:18;24.00;65.30
39931;DHT22;26635;-35.248;149.138;2022-11-27T03:00:53;24.00;65.50
39931;DHT22;26635;-35.248;149.138;2022-11-27T03:03:31;23.90;65.60
39931;DHT22;26635;-35.248;149.138;2022-11-27T03:06:08;23.80;66.20
39931;DHT22;26635;-35.248;149.138;2022-11-27T03:09:04;23.70;67.10
39931;DHT22;26635;-35.248;149.138;2022-11-27T03:11:36;23.70;65.90
39931;DHT22;26635;-35.248;149.138;2022-11-27T03:14:09;23.80;66.10
39931;DHT22;26635;-35.248;149.138;2022-11-27T03:22:22;23.80;66.00
39931;DHT22;26635;-35.248;149.138;2022-11-27T03:24:52;23.70;66.20
39931;DHT22;26635;-35.248;149.138;2022-11-27T03:27:37;23.60;65.70
39931;DHT22;26635;-35.248;149.138;2022-11-27T03:30:10;23.50;66.10
39931;DHT22;26635;-35.248;149.138;2022-11-27T03:32:41;23.50;66.60
39931;DHT22;26635;-35.248;149.138;2022-11-27T03:35:15;23.40;67.20
39931;DHT22;26635;-35.248;149.138;2022-11-27T03:37:46;23.40;65.30
39931;DHT22;26635;-35.248;149.138;2022-11-27T03:40:17;23.30;65.70
39931;DHT22;26635;-35.248;149.138;2022-11-27T03:43:43;23.30;66.10
39931;DHT22;26635;-35.248;149.138;2022-11-27T03:46:23;23.40;67.50
39931;DHT22;26635;-35.248;149.138;2022-11-27T03:51:46;23.70;66.80
39931;DHT22;26635;-35.248;149.138;2022-11-27T03:54:34;23.90;67.00
39931;DHT22;26635;-35.248;149.138;2022-11-27T03:57:22;24.00;66.60
39931;DHT22;26635;-35.248;149.138;2022-11-27T03:59:55;24.00;65.60
39931;DHT22;26635;-35.248;149.138;2022-11-27T04:02:37;24.00;66.30
39931;DHT22;26635;-35.248;149.138;2022-11-27T04:05:11;23.90;65.60
39931;DHT22;26635;-35.248;149.138;2022-11-27T04:07:43;23.90;65.70
39931;DHT22;26635;-35.248;149.138;2022-11-27T04:10:16;24.00;66.80
39931;DHT22;26635;-35.248;149.138;2022-11-27T04:12:47;24.00;66.10
39931;DHT22;26635;-35.248;149.138;2022-11-27T04:15:18;24.00;65.20
39931;DHT22;26635;-35.248;149.138;2022-11-27T04:17:49;24.00;66.90
39931;DHT22;26635;-35.248;149.138;2022-11-27T04:20:19;24.00;65.70
39931;DHT22;26635;-35.248;149.138;2022-11-27T04:22:50;24.00;65.30
39931;DHT22;26635;-35.248;149.138;2022-11-27T04:25:20;23.90;66.70
39931;DHT22;26635;-35.248;149.138;2022-11-27T04:27:50;23.90;67.30
39931;DHT22;26635;-35.248;149.138;2022-11-27T04:30:21;23.90;67.40
39931;DHT22;26635;-35.248;149.138;2022-11-27T04:32:52;23.90;67.00
39931;DHT22;26635;-35.248;149.138;2022-11-27T04:35:24;23.80;67.40
39931;DHT22;26635;-35.248;149.138;2022-11-27T04:37:56;23.80;67.60
39931;DHT22;26635;-35.248;149.138;2022-11-27T04:40:27;23.80;68.00
39931;DHT22;26635;-35.248;149.138;2022-11-27T04:42:57;23.80;68.60
39931;DHT22;26635;-35.248;149.138;2022-11-27T04:45:27;23.90;69.80
39931;DHT22;26635;-35.248;149.138;2022-11-27T04:47:58;23.90;68.30
39931;DHT22;26635;-35.248;149.138;2022-11-27T04:50:28;23.70;68.80
39931;DHT22;26635;-35.248;149.138;2022-11-27T04:52:58;23.60;69.00
39931;DHT22;26635;-35.248;149.138;2022-11-27T04:55:29;23.40;69.20
39931;DHT22;26635;-35.248;149.138;2022-11-27T04:58:00;23.30;70.20
39931;DHT22;26635;-35.248;149.138;2022-11-27T05:00:30;23.20;70.50
39931;DHT22;26635;-35.248;149.138;2022-11-27T05:03:01;23.20;71.10
39931;DHT22;26635;-35.248;149.138;2022-11-27T05:05:31;23.30;70.70
39931;DHT22;26635;-35.248;149.138;2022-11-27T05:08:02;23.30;70.20
39931;DHT22;26635;-35.248;149.138;2022-11-27T05:10:32;23.40;69.80
39931;DHT22;26635;-35.248;149.138;2022-11-27T05:13:03;23.50;69.30
39931;DHT22;26635;-35.248;149.138;2022-11-27T05:15:33;23.60;69.10
39931;DHT22;26635;-35.248;149.138;2022-11-27T05:18:05;23.70;69.40
39931;DHT22;26635;-35.248;149.138;2022-11-27T05:20:37;23.80;68.80
39931;DHT22;26635;-35.248;149.138;2022-11-27T05:23:07;23.80;68.10
39931;DHT22;26635;-35.248;149.138;2022-11-27T05:25:37;23.70;68.40
39931;DHT22;26635;-35.248;149.138;2022-11-27T05:28:08;23.60;69.20
39931;DHT22;26635;-35.248;149.138;2022-11-27T05:30:38;23.60;69.60
39931;DHT22;26635;-35.248;149.138;2022-11-27T05:33:10;23.50;70.40
39931;DHT22;26635;-35.248;149.138;2022-11-27T05:35:40;23.30;70.40
39931;DHT22;26635;-35.248;149.138;2022-11-27T05:38:14;23.30;69.80
39931;DHT22;26635;-35.248;149.138;2022-11-27T05:40:57;23.20;71.00
39931;DHT22;26635;-35.248;149.138;2022-11-27T05:43:27;23.10;71.40
39931;DHT22;26635;-35.248;149.138;2022-11-27T05:46:03;23.10;71.60
39931;DHT22;26635;-35.248;149.138;2022-11-27T05:48:35;23.10;71.30
39931;DHT22;26635;-35.248;149.138;2022-11-27T05:51:06;23.20;71.90
39931;DHT22;26635;-35.248;149.138;2022-11-27T05:53:36;23.20;71.90
39931;DHT22;26635;-35.248;149.138;2022-11-27T05:56:09;23.30;72.20
39931;DHT22;26635;-35.248;149.138;2022-11-27T05:58:42;23.40;72.10
39931;DHT22;26635;-35.248;149.138;2022-11-27T06:01:14;23.40;72.30
39931;DHT22;26635;-35.248;149.138;2022-11-27T06:03:48;23.40;72.30
39931;DHT22;26635;-35.248;149.138;2022-11-27T06:06:19;23.40;71.70
39931;DHT22;26635;-35.248;149.138;2022-11-27T06:08:51;23.40;71.60
39931;DHT22;26635;-35.248;149.138;2022-11-27T06:11:22;23.40;71.90
39931;DHT22;26635;-35.248;149.138;2022-11-27T06:13:54;23.40;71.80
39931;DHT22;26635;-35.248;149.138;2022-11-27T06:16:24;23.40;72.60
39931;DHT22;26635;-35.248;149.138;2022-11-27T06:18:56;23.40;71.30
39931;DHT22;26635;-35.248;149.138;2022-11-27T06:21:26;23.50;71.20
39931;DHT22;26635;-35.248;149.138;2022-11-27T06:23:58;23.50;71.10
39931;DHT22;26635;-35.248;149.138;2022-11-27T06:26:30;23.50;71.00
39931;DHT22;26635;-35.248;149.138;2022-11-27T06:29:02;23.50;70.60
39931;DHT22;26635;-35.248;149.138;2022-11-27T06:31:33;23.40;71.30
39931;DHT22;26635;-35.248;149.138;2022-11-27T06:34:05;23.40;72.90
39931;DHT22;26635;-35.248;149.138;2022-11-27T06:36:37;23.40;72.00
39931;DHT22;26635;-35.248;149.138;2022-11-27T06:39:11;23.40;71.50
39931;DHT22;26635;-35.248;149.138;2022-11-27T06:41:42;23.30;71.50
39931;DHT22;26635;-35.248;149.138;2022-11-27T06:44:14;23.30;71.90
39931;DHT22;26635;-35.248;149.138;2022-11-27T06:46:44;23.20;72.70
39931;DHT22;26635;-35.248;149.138;2022-11-27T06:49:15;23.10;72.00
39931;DHT22;26635;-35.248;149.138;2022-11-27T06:51:45;23.00;72.70
39931;DHT22;26635;-35.248;149.138;2022-11-27T06:54:16;22.90;72.40
39931;DHT22;26635;-35.248;149.138;2022-11-27T06:56:48;22.80;73.50
39931;DHT22;26635;-35.248;149.138;2022-11-27T06:59:20;22.70;73.60
39931;DHT22;26635;-35.248;149.138;2022-11-27T07:01:51;22.70;73.90
39931;DHT22;26635;-35.248;149.138;2022-11-27T07:04:22;22.60;73.70
39931;DHT22;26635;-35.248;149.138;2022-11-27T07:06:53;22.50;74.10
39931;DHT22;26635;-35.248;149.138;2022-11-27T07:09:23;22.40;74.40
39931;DHT22;26635;-35.248;149.138;2022-11-27T07:11:54;22.30;74.80
39931;DHT22;26635;-35.248;149.138;2022-11-27T07:14:25;22.20;75.20
39931;DHT22;26635;-35.248;149.138;2022-11-27T07:16:55;22.10;75.80
39931;DHT22;26635;-35.248;149.138;2022-11-27T07:19:25;22.10;75.70
39931;DHT22;26635;-35.248;149.138;2022-11-27T07:21:56;22.00;76.40
39931;DHT22;26635;-35.248;149.138;2022-11-27T07:24:26;21.90;76.10
39931;DHT22;26635;-35.248;149.138;2022-11-27T07:26:56;21.90;76.20
39931;DHT22;26635;-35.248;149.138;2022-11-27T07:29:27;21.80;76.60
39931;DHT22;26635;-35.248;149.138;2022-11-27T07:31:57;21.80;76.70
39931;DHT22;26635;-35.248;149.138;2022-11-27T07:34:27;21.70;77.70
39931;DHT22;26635;-35.248;149.138;2022-11-27T07:36:58;21.70;77.70
39931;DHT22;26635;-35.248;149.138;2022-11-27T07:39:28;21.60;77.90
39931;DHT22;26635;-35.248;149.138;2022-11-27T07:42:19;21.60;77.40
39931;DHT22;26635;-35.248;149.138;2022-11-27T07:45:06;21.50;78.50
39931;DHT22;26635;-35.248;149.138;2022-11-27T07:47:38;21.40;81.70
39931;DHT22;26635;-35.248;149.138;2022-11-27T07:50:11;21.30;84.60
39931;DHT22;26635;-35.248;149.138;2022-11-27T07:52:42;21.00;86.30
39931;DHT22;26635;-35.248;149.138;2022-11-27T07:55:13;20.80;86.50
39931;DHT22;26635;-35.248;149.138;2022-11-27T07:57:43;20.60;89.10
39931;DHT22;26635;-35.248;149.138;2022-11-27T08:00:14;20.40;90.20
39931;DHT22;26635;-35.248;149.138;2022-11-27T08:02:45;20.20;90.60
39931;DHT22;26635;-35.248;149.138;2022-11-27T08:05:16;20.10;91.40
39931;DHT22;26635;-35.248;149.138;2022-11-27T08:07:47;20.00;91.70
39931;DHT22;26635;-35.248;149.138;2022-11-27T08:10:18;19.90;91.90
39931;DHT22;26635;-35.248;149.138;2022-11-27T08:12:50;19.70;92.20
39931;DHT22;26635;-35.248;149.138;2022-11-27T08:15:20;19.60;92.20
39931;DHT22;26635;-35.248;149.138;2022-11-27T08:17:51;19.60;92.00
39931;DHT22;26635;-35.248;149.138;2022-11-27T08:20:22;19.50;92.00
39931;DHT22;26635;-35.248;149.138;2022-11-27T08:22:53;19.40;92.00
39931;DHT22;26635;-35.248;149.138;2022-11-27T08:25:31;19.40;92.50
39931;DHT22;26635;-35.248;149.138;2022-11-27T08:28:02;19.30;92.40
39931;DHT22;26635;-35.248;149.138;2022-11-27T08:30:33;19.30;92.70
39931;DHT22;26635;-35.248;149.138;2022-11-27T08:33:03;19.20;92.50
39931;DHT22;26635;-35.248;149.138;2022-11-27T08:35:34;19.20;92.50
39931;DHT22;26635;-35.248;149.138;2022-11-27T08:38:06;19.10;92.50
39931;DHT22;26635;-35.248;149.138;2022-11-27T08:40:40;19.10;92.50
39931;DHT22;26635;-35.248;149.138;2022-11-27T08:43:11;19.00;92.40
39931;DHT22;26635;-35.248;149.138;2022-11-27T08:45:41;19.00;92.60
39931;DHT22;26635;-35.248;149.138;2022-11-27T08:48:11;18.90;92.80
39931;DHT22;26635;-35.248;149.138;2022-11-27T08:50:41;18.80;92.60
39931;DHT22;26635;-35.248;149.138;2022-11-27T08:53:12;18.80;92.80
39931;DHT22;26635;-35.248;149.138;2022-11-27T08:55:43;18.70;92.80
39931;DHT22;26635;-35.248;149.138;2022-11-27T08:58:14;18.70;92.80
39931;DHT22;26635;-35.248;149.138;2022-11-27T09:00:45;18.60;92.90
39931;DHT22;26635;-35.248;149.138;2022-11-27T09:03:15;18.50;93.40
39931;DHT22;26635;-35.248;149.138;2022-11-27T09:05:46;18.50;93.00
39931;DHT22;26635;-35.248;149.138;2022-11-27T09:08:16;18.40;93.10
39931;DHT22;26635;-35.248;149.138;2022-11-27T09:10:52;18.30;92.80
39931;DHT22;26635;-35.248;149.138;2022-11-27T09:13:22;18.30;93.10
39931;DHT22;26635;-35.248;149.138;2022-11-27T09:15:55;18.30;93.40
39931;DHT22;26635;-35.248;149.138;2022-11-27T09:18:26;18.20;93.40
39931;DHT22;26635;-35.248;149.138;2022-11-27T09:21:02;18.10;93.40
39931;DHT22;26635;-35.248;149.138;2022-11-27T09:23:33;18.10;93.50
39931;DHT22;26635;-35.248;149.138;2022-11-27T09:26:07;18.10;93.50
39931;DHT22;26635;-35.248;149.138;2022-11-27T09:28:39;18.10;93.50
39931;DHT22;26635;-35.248;149.138;2022-11-27T09:31:12;18.00;93.50
39931;DHT22;26635;-35.248;149.138;2022-11-27T09:33:44;18.00;93.50
39931;DHT22;26635;-35.248;149.138;2022-11-27T09:36:19;17.90;93.50
39931;DHT22;26635;-35.248;149.138;2022-11-27T09:38:50;17.90;93.80
39931;DHT22;26635;-35.248;149.138;2022-11-27T09:47:09;17.70;94.00
39931;DHT22;26635;-35.248;149.138;2022-11-27T09:50:17;17.70;93.90
39931;DHT22;26635;-35.248;149.138;2022-11-27T09:53:03;17.60;94.30
39931;DHT22;26635;-35.248;149.138;2022-11-27T09:55:46;17.60;93.90
39931;DHT22;26635;-35.248;149.138;2022-11-27T09:58:34;17.60;94.00
39931;DHT22;26635;-35.248;149.138;2022-11-27T10:01:17;17.50;94.00
39931;DHT22;26635;-35.248;149.138;2022-11-27T10:04:01;17.50;94.10
39931;DHT22;26635;-35.248;149.138;2022-11-27T10:12:56;17.40;94.70
39931;DHT22;26635;-35.248;149.138;2022-11-27T10:26:46;17.30;95.30
39931;DHT22;26635;-35.248;149.138;2022-11-27T10:29:29;17.20;95.70
39931;DHT22;26635;-35.248;149.138;2022-11-27T10:32:14;17.20;95.10
39931;DHT22;26635;-35.248;149.138;2022-11-27T10:35:15;17.20;94.90
39931;DHT22;26635;-35.248;149.138;2022-11-27T10:37:59;17.10;94.70
39931;DHT22;26635;-35.248;149.138;2022-11-27T10:43:30;17.00;94.90
39931;DHT22;26635;-35.248;149.138;2022-11-27T10:46:02;17.00;95.00
39931;DHT22;26635;-35.248;149.138;2022-11-27T10:48:33;17.00;95.10
39931;DHT22;26635;-35.248;149.138;2022-11-27T10:51:52;16.90;95.10
39931;DHT22;26635;-35.248;149.138;2022-11-27T10:54:04;16.80;94.90
39931;DHT22;26635;-35.248;149.138;2022-11-27T10:56:44;16.80;95.30
39931;DHT22;26635;-35.248;149.138;2022-11-27T10:59:34;16.70;94.90
39931;DHT22;26635;-35.248;149.138;2022-11-27T11:02:04;16.70;95.20
39931;DHT22;26635;-35.248;149.138;2022-11-27T11:04:37;16.70;95.50
39931;DHT22;26635;-35.248;149.138;2022-11-27T11:07:28;16.60;95.20
39931;DHT22;26635;-35.248;149.138;2022-11-27T11:09:58;16.60;95.00
39931;DHT22;26635;-35.248;149.138;2022-11-27T11:12:29;16.50;95.30
39931;DHT22;26635;-35.248;149.138;2022-11-27T11:15:00;16.50;95.20
39931;DHT22;26635;-35.248;149.138;2022-11-27T11:17:32;16.40;95.20
39931;DHT22;26635;-35.248;149.138;2022-11-27T11:20:22;16.40;95.50
39931;DHT22;26635;-35.248;149.138;2022-11-27T11:22:53;16.30;95.40
39931;DHT22;26635;-35.248;149.138;2022-11-27T11:25:24;16.30;95.40
39931;DHT22;26635;-35.248;149.138;2022-11-27T11:27:55;16.30;95.40
39931;DHT22;26635;-35.248;149.138;2022-11-27T11:30:29;16.30;95.90
39931;DHT22;26635;-35.248;149.138;2022-11-27T11:33:01;16.30;95.50
39931;DHT22;26635;-35.248;149.138;2022-11-27T11:35:35;16.30;95.40
39931;DHT22;26635;-35.248;149.138;2022-11-27T11:38:16;16.20;95.30
39931;DHT22;26635;-35.248;149.138;2022-11-27T11:41:04;16.20;95.20
39931;DHT22;26635;-35.248;149.138;2022-11-27T11:43:36;16.20;95.50
39931;DHT22;26635;-35.248;149.138;2022-11-27T11:46:22;16.10;95.60
39931;DHT22;26635;-35.248;149.138;2022-11-27T11:49:03;16.10;95.70
39931;DHT22;26635;-35.248;149.138;2022-11-27T11:51:47;16.00;95.40
39931;DHT22;26635;-35.248;149.138;2022-11-27T11:54:33;16.00;95.20
39931;DHT22;26635;-35.248;149.138;2022-11-27T12:00:13;15.90;95.00
39931;DHT22;26635;-35.248;149.138;2022-11-27T12:05:36;15.90;95.70
39931;DHT22;26635;-35.248;149.138;2022-11-27T12:11:18;15.80;95.60
39931;DHT22;26635;-35.248;149.138;2022-11-27T12:14:16;15.80;95.50
39931;DHT22;26635;-35.248;149.138;2022-11-27T12:39:31;15.50;94.90
39931;DHT22;26635;-35.248;149.138;2022-11-27T12:42:38;15.40;95.00
39931;DHT22;26635;-35.248;149.138;2022-11-27T12:48:11;15.30;95.50
39931;DHT22;26635;-35.248;149.138;2022-11-27T12:50:54;15.30;95.20
39931;DHT22;26635;-35.248;149.138;2022-11-27T12:56:08;15.10;95.30
39931;DHT22;26635;-35.248;149.138;2022-11-27T12:58:46;15.10;95.50
39931;DHT22;26635;-35.248;149.138;2022-11-27T13:01:32;15.10;95.30
39931;DHT22;26635;-35.248;149.138;2022-11-27T13:04:31;15.10;95.30
39931;DHT22;26635;-35.248;149.138;2022-11-27T13:07:05;15.00;95.40
39931;DHT22;26635;-35.248;149.138;2022-11-27T13:12:39;15.00;95.50
39931;DHT22;26635;-35.248;149.138;2022-11-27T13:18:25;15.00;95.10
39931;DHT22;26635;-35.248;149.138;2022-11-27T13:21:03;15.00;95.30
39931;DHT22;26635;-35.248;149.138;2022-11-27T13:23:35;15.00;95.20
39931;DHT22;26635;-35.248;149.138;2022-11-27T13:26:10;15.00;95.20
39931;DHT22;26635;-35.248;149.138;2022-11-27T13:29:00;15.00;95.20
39931;DHT22;26635;-35.248;149.138;2022-11-27T13:31:35;14.90;95.40
39931;DHT22;26635;-35.248;149.138;2022-11-27T13:34:17;14.80;95.50
39931;DHT22;26635;-35.248;149.138;2022-11-27T13:36:55;14.80;95.30
39931;DHT22;26635;-35.248;149.138;2022-11-27T13:39:39;14.80;95.60
39931;DHT22;26635;-35.248;149.138;2022-11-27T13:44:52;14.80;95.30
39931;DHT22;26635;-35.248;149.138;2022-11-27T13:47:27;14.70;95.40
39931;DHT22;26635;-35.248;149.138;2022-11-27T13:50:01;14.70;95.10
39931;DHT22;26635;-35.248;149.138;2022-11-27T13:52:32;14.70;95.10
39931;DHT22;26635;-35.248;149.138;2022-11-27T13:55:06;14.70;95.10
39931;DHT22;26635;-35.248;149.138;2022-11-27T13:57:38;14.60;95.30
39931;DHT22;26635;-35.248;149.138;2022-11-27T14:03:02;14.60;95.30
39931;DHT22;26635;-35.248;149.138;2022-11-27T14:05:39;14.60;95.40
39931;DHT22;26635;-35.248;149.138;2022-11-27T14:08:29;14.50;95.40
39931;DHT22;26635;-35.248;149.138;2022-11-27T14:11:04;14.50;95.20
39931;DHT22;26635;-35.248;149.138;2022-11-27T14:16:32;14.50;95.50
39931;DHT22;26635;-35.248;149.138;2022-11-27T14:19:23;14.50;95.40
39931;DHT22;26635;-35.248;149.138;2022-11-27T14:22:12;14.50;95.20
39931;DHT22;26635;-35.248;149.138;2022-11-27T14:24:43;14.40;95.40
39931;DHT22;26635;-35.248;149.138;2022-11-27T14:27:18;14.40;95.20
39931;DHT22;26635;-35.248;149.138;2022-11-27T14:29:49;14.30;95.10
39931;DHT22;26635;-35.248;149.138;2022-11-27T14:32:20;14.30;95.00
39931;DHT22;26635;-35.248;149.138;2022-11-27T14:34:51;14.30;94.90
39931;DHT22;26635;-35.248;149.138;2022-11-27T14:37:24;14.20;94.90
39931;DHT22;26635;-35.248;149.138;2022-11-27T14:39:55;14.20;94.80
39931;DHT22;26635;-35.248;149.138;2022-11-27T14:42:27;14.10;95.00
39931;DHT22;26635;-35.248;149.138;2022-11-27T14:45:14;14.10;95.00
39931;DHT22;26635;-35.248;149.138;2022-11-27T14:47:51;14.00;94.90
39931;DHT22;26635;-35.248;149.138;2022-11-27T14:50:22;14.00;95.00
39931;DHT22;26635;-35.248;149.138;2022-11-27T14:52:56;13.90;95.30
39931;DHT22;26635;-35.248;149.138;2022-11-27T14:55:27;13.90;95.30
39931;DHT22;26635;-35.248;149.138;2022-11-27T14:58:01;13.80;95.10
39931;DHT22;26635;-35.248;149.138;2022-11-27T15:00:32;13.70;95.30
39931;DHT22;26635;-35.248;149.138;2022-11-27T15:03:09;13.70;95.00
39931;DHT22;26635;-35.248;149.138;2022-11-27T15:05:40;13.70;94.90
39931;DHT22;26635;-35.248;149.138;2022-11-27T15:08:20;13.70;95.10
39931;DHT22;26635;-35.248;149.138;2022-11-27T15:10:55;13.60;95.10
39931;DHT22;26635;-35.248;149.138;2022-11-27T15:13:30;13.60;95.00
39931;DHT22;26635;-35.248;149.138;2022-11-27T15:16:10;13.50;95.20
39931;DHT22;26635;-35.248;149.138;2022-11-27T15:18:48;13.50;95.30
39931;DHT22;26635;-35.248;149.138;2022-11-27T15:21:23;13.50;95.00
39931;DHT22;26635;-35.248;149.138;2022-11-27T15:23:55;13.40;95.20
39931;DHT22;26635;-35.248;149.138;2022-11-27T15:26:36;13.40;95.40
39931;DHT22;26635;-35.248;149.138;2022-11-27T15:30:29;13.30;95.50
39931;DHT22;26635;-35.248;149.138;2022-11-27T15:32:46;13.20;95.10
39931;DHT22;26635;-35.248;149.138;2022-11-27T15:35:30;13.20;95.50
39931;DHT22;26635;-35.248;149.138;2022-11-27T15:38:09;13.20;95.50
39931;DHT22;26635;-35.248;149.138;2022-11-27T15:40:40;13.10;95.20
39931;DHT22;26635;-35.248;149.138;2022-11-27T15:43:15;13.10;95.10
39931;DHT22;26635;-35.248;149.138;2022-11-27T15:45:45;13.10;95.30
39931;DHT22;26635;-35.248;149.138;2022-11-27T15:48:17;13.00;95.30
39931;DHT22;26635;-35.248;149.138;2022-11-27T15:50:47;13.00;95.80
39931;DHT22;26635;-35.248;149.138;2022-11-27T15:53:18;12.90;95.10
39931;DHT22;26635;-35.248;149.138;2022-11-27T15:55:51;12.90;95.60
39931;DHT22;26635;-35.248;149.138;2022-11-27T15:58:21;12.90;94.80
39931;DHT22;26635;-35.248;149.138;2022-11-27T16:00:51;12.90;95.00
39931;DHT22;26635;-35.248;149.138;2022-11-27T16:03:22;12.90;94.60
39931;DHT22;26635;-35.248;149.138;2022-11-27T16:05:52;12.80;95.00
39931;DHT22;26635;-35.248;149.138;2022-11-27T16:08:26;12.80;94.70
39931;DHT22;26635;-35.248;149.138;2022-11-27T16:11:01;12.70;94.90
39931;DHT22;26635;-35.248;149.138;2022-11-27T16:13:33;12.60;95.10
39931;DHT22;26635;-35.248;149.138;2022-11-27T16:16:07;12.60;95.10
39931;DHT22;26635;-35.248;149.138;2022-11-27T16:18:38;12.50;95.10
39931;DHT22;26635;-35.248;149.138;2022-11-27T16:21:10;12.50;95.00
39931;DHT22;26635;-35.248;149.138;2022-11-27T16:23:42;12.50;94.80
39931;DHT22;26635;-35.248;149.138;2022-11-27T16:26:13;12.40;94.70
39931;DHT22;26635;-35.248;149.138;2022-11-27T16:28:44;12.40;95.00
39931;DHT22;26635;-35.248;149.138;2022-11-27T16:31:15;12.30;94.90
39931;DHT22;26635;-35.248;149.138;2022-11-27T16:33:45;12.30;94.90
39931;DHT22;26635;-35.248;149.138;2022-11-27T16:36:18;12.30;95.40
39931;DHT22;26635;-35.248;149.138;2022-11-27T16:38:51;12.30;95.50
39931;DHT22;26635;-35.248;149.138;2022-11-27T16:41:23;12.30;95.70
39931;DHT22;26635;-35.248;149.138;2022-11-27T16:43:56;12.30;95.40
39931;DHT22;26635;-35.248;149.138;2022-11-27T16:46:28;12.30;95.20
39931;DHT22;26635;-35.248;149.138;2022-11-27T16:48:58;12.30;95.60
39931;DHT22;26635;-35.248;149.138;2022-11-27T16:51:30;12.30;95.50
39931;DHT22;26635;-35.248;149.138;2022-11-27T16:54:04;12.30;95.70
39931;DHT22;26635;-35.248;149.138;2022-11-27T16:56:35;12.30;95.80
39931;DHT22;26635;-35.248;149.138;2022-11-27T16:59:12;12.30;95.30
39931;DHT22;26635;-35.248;149.138;2022-11-27T17:01:43;12.30;95.40
39931;DHT22;26635;-35.248;149.138;2022-11-27T17:04:17;12.20;95.10
39931;DHT22;26635;-35.248;149.138;2022-11-27T17:06:48;12.30;95.30
39931;DHT22;26635;-35.248;149.138;2022-11-27T17:09:20;12.20;94.90
39931;DHT22;26635;-35.248;149.138;2022-11-27T17:11:53;12.20;94.60
39931;DHT22;26635;-35.248;149.138;2022-11-27T17:14:23;12.20;94.90
39931;DHT22;26635;-35.248;149.138;2022-11-27T17:16:55;12.10;95.40